createdAt,value
2018-05-04T00:00:16.048Z,8.20
2018-05-04T00:02:43.633Z,8.30
2018-05-04T00:05:11.312Z,8.30
2018-05-04T00:07:38.786Z,8.20
2018-05-04T00:10:06.430Z,8.20
2018-05-04T00:12:33.920Z,8.20
2018-05-04T00:15:01.577Z,8.10
2018-05-04T00:17:29.169Z,8.00
2018-05-04T00:19:56.913Z,8.00
2018-05-04T00:22:25.256Z,7.90
2018-05-04T00:24:53.523Z,7.90
2018-05-04T00:27:21.795Z,7.80
2018-05-04T00:29:50.116Z,7.80
2018-05-04T00:32:17.663Z,7.80
2018-05-04T00:34:45.204Z,7.70
2018-05-04T00:37:12.715Z,7.70
2018-05-04T00:39:40.341Z,7.60
2018-05-04T00:42:08.785Z,7.60
2018-05-04T00:44:36.223Z,7.50
2018-05-04T00:47:03.720Z,7.40
2018-05-04T00:49:31.241Z,7.40
2018-05-04T00:51:58.719Z,7.30
2018-05-04T00:54:27.000Z,7.10
2018-05-04T00:56:54.505Z,7.10
2018-05-04T00:59:21.999Z,7.00
2018-05-04T01:01:49.558Z,7.10
2018-05-04T01:04:17.054Z,7.10
2018-05-04T01:06:44.599Z,7.10
2018-05-04T01:09:12.060Z,7.10
2018-05-04T01:11:39.655Z,7.10
2018-05-04T01:14:07.133Z,7.10
2018-05-04T01:16:34.612Z,6.90
2018-05-04T01:19:02.935Z,6.80
2018-05-04T01:21:31.290Z,6.80
2018-05-04T01:23:59.573Z,7.00
2018-05-04T01:26:27.049Z,6.90
2018-05-04T01:28:55.367Z,7.00
2018-05-04T01:31:22.936Z,7.00
2018-05-04T01:33:50.475Z,7.00
2018-05-04T01:36:17.973Z,7.00
2018-05-04T01:38:45.991Z,7.00
2018-05-04T01:41:13.562Z,6.90
2018-05-04T01:43:41.123Z,6.80
2018-05-04T01:46:08.694Z,6.80
2018-05-04T01:48:36.971Z,6.80
2018-05-04T01:51:05.287Z,6.90
2018-05-04T01:53:32.872Z,6.90
2018-05-04T01:56:01.090Z,6.80
2018-05-04T01:58:29.359Z,6.70
2018-05-04T02:00:57.633Z,6.90
2018-05-04T02:03:25.886Z,6.80
2018-05-04T02:05:53.410Z,6.80
2018-05-04T02:08:21.612Z,6.70
2018-05-04T02:10:49.014Z,6.60
2018-05-04T02:13:16.564Z,6.50
2018-05-04T02:15:44.632Z,6.40
2018-05-04T02:18:12.922Z,6.40
2018-05-04T02:20:40.380Z,6.40
2018-05-04T02:23:07.938Z,6.40
2018-05-04T02:25:35.397Z,6.40
2018-05-04T02:28:02.882Z,6.40
2018-05-04T02:30:30.455Z,6.40
2018-05-04T02:32:57.954Z,6.20
2018-05-04T02:35:25.462Z,6.10
2018-05-04T02:37:52.942Z,6.00
2018-05-04T02:40:21.195Z,6.00
2018-05-04T02:42:48.717Z,6.00
2018-05-04T02:45:16.220Z,5.90
2018-05-04T02:47:43.839Z,5.80
2018-05-04T02:50:11.382Z,5.80
2018-05-04T02:52:38.859Z,5.70
2018-05-04T02:55:07.092Z,5.70
2018-05-04T02:57:34.596Z,5.80
2018-05-04T03:00:03.619Z,5.80
2018-05-04T03:02:31.159Z,5.80
2018-05-04T03:05:04.660Z,5.80
2018-05-04T03:07:32.085Z,5.80
2018-05-04T03:09:59.654Z,5.80
2018-05-04T03:12:27.192Z,5.80
2018-05-04T03:14:54.633Z,5.70
2018-05-04T03:17:22.691Z,5.70
2018-05-04T03:19:51.056Z,5.60
2018-05-04T03:22:18.592Z,5.60
2018-05-04T03:24:46.530Z,5.60
2018-05-04T03:27:14.057Z,5.50
2018-05-04T03:29:41.602Z,5.40
2018-05-04T03:32:09.170Z,5.30
2018-05-04T03:34:36.883Z,5.30
2018-05-04T03:37:04.351Z,5.30
2018-05-04T03:39:31.857Z,5.30
2018-05-04T03:41:59.349Z,5.30
2018-05-04T03:44:27.626Z,5.30
2018-05-04T03:46:55.885Z,5.20
2018-05-04T03:49:23.408Z,5.20
2018-05-04T03:51:50.923Z,5.20
2018-05-04T03:54:18.416Z,5.20
2018-05-04T03:56:45.916Z,5.30
2018-05-04T03:59:13.409Z,5.20
2018-05-04T04:01:40.877Z,5.00
2018-05-04T04:04:09.003Z,4.90
2018-05-04T04:06:36.565Z,4.90
2018-05-04T04:09:04.080Z,4.90
2018-05-04T04:11:31.598Z,4.80
2018-05-04T04:13:59.168Z,4.90
2018-05-04T04:16:26.678Z,5.00
2018-05-04T04:18:54.201Z,5.20
2018-05-04T04:21:21.726Z,5.20
2018-05-04T04:23:49.210Z,5.40
2018-05-04T04:26:16.848Z,5.50
2018-05-04T04:28:45.144Z,6.10
2018-05-04T04:31:13.351Z,6.50
2018-05-04T04:33:40.842Z,6.50
2018-05-04T04:36:08.419Z,6.90
2018-05-04T04:38:35.920Z,7.30
2018-05-04T04:41:03.424Z,7.70
2018-05-04T04:43:31.102Z,8.00
2018-05-04T04:45:58.557Z,8.40
2018-05-04T04:48:26.151Z,8.80
2018-05-04T04:50:53.738Z,9.00
2018-05-04T04:53:21.250Z,9.10
2018-05-04T04:55:48.778Z,9.20
2018-05-04T04:58:18.267Z,9.60
2018-05-04T05:00:45.741Z,10.00
2018-05-04T05:03:13.310Z,10.60
2018-05-04T05:05:40.816Z,11.00
2018-05-04T05:08:08.650Z,11.00
2018-05-04T05:10:36.867Z,11.40
2018-05-04T05:13:04.381Z,11.40
2018-05-04T05:15:31.945Z,11.40
2018-05-04T05:17:59.452Z,11.90
2018-05-04T05:20:26.922Z,12.00
2018-05-04T05:22:54.426Z,12.00
2018-05-04T05:25:21.966Z,12.10
2018-05-04T05:27:50.311Z,12.60
2018-05-04T05:30:17.785Z,12.60
2018-05-04T05:32:45.342Z,12.80
2018-05-04T05:35:12.909Z,13.00
2018-05-04T05:37:40.343Z,13.00
2018-05-04T05:40:08.061Z,13.40
2018-05-04T05:42:35.553Z,13.80
2018-05-04T05:45:03.754Z,13.90
2018-05-04T05:47:31.777Z,14.10
2018-05-04T05:50:00.091Z,14.20
2018-05-04T05:52:28.685Z,14.30
2018-05-04T05:54:56.939Z,14.40
2018-05-04T05:57:25.230Z,14.20
2018-05-04T05:59:53.511Z,14.00
2018-05-04T06:02:21.722Z,14.30
2018-05-04T06:04:49.225Z,14.30
2018-05-04T06:07:17.211Z,14.80
2018-05-04T06:09:45.532Z,14.90
2018-05-04T06:12:13.006Z,14.90
2018-05-04T06:14:40.566Z,14.90
2018-05-04T06:17:08.726Z,14.60
2018-05-04T06:19:36.229Z,14.60
2018-05-04T06:22:03.745Z,14.20
2018-05-04T06:24:31.267Z,14.30
2018-05-04T06:26:58.793Z,14.70
2018-05-04T06:29:26.852Z,15.10
2018-05-04T06:31:54.377Z,14.60
2018-05-04T06:34:21.878Z,13.70
2018-05-04T06:36:49.384Z,13.80
2018-05-04T06:39:16.908Z,14.20
2018-05-04T06:41:44.344Z,13.60
2018-05-04T06:44:12.627Z,14.10
2018-05-04T06:46:40.968Z,14.60
2018-05-04T06:49:08.427Z,14.60
2018-05-04T06:51:35.927Z,14.80
2018-05-04T06:54:04.278Z,15.00
2018-05-04T06:56:31.808Z,15.00
2018-05-04T06:59:02.512Z,15.20
2018-05-04T07:01:30.782Z,15.30
2018-05-04T07:03:59.054Z,15.50
2018-05-04T07:06:26.573Z,15.50
2018-05-04T07:08:54.104Z,15.60
2018-05-04T07:11:21.812Z,16.10
2018-05-04T07:13:49.283Z,16.30
2018-05-04T07:16:16.796Z,16.20
2018-05-04T07:18:45.072Z,16.00
2018-05-04T07:21:14.373Z,16.40
2018-05-04T07:23:41.880Z,16.30
2018-05-04T07:26:09.356Z,16.60
2018-05-04T07:28:36.892Z,16.20
2018-05-04T07:31:05.475Z,16.20
2018-05-04T07:33:33.642Z,16.30
2018-05-04T07:36:01.536Z,16.70
2018-05-04T07:38:28.895Z,16.20
2018-05-04T07:40:56.936Z,16.30
2018-05-04T07:43:25.448Z,16.80
2018-05-04T07:45:52.978Z,16.80
2018-05-04T07:48:21.276Z,16.80
2018-05-04T07:50:48.774Z,16.80
2018-05-04T07:53:16.356Z,17.60
2018-05-04T07:55:43.832Z,18.00
2018-05-04T07:58:11.957Z,18.20
2018-05-04T08:00:39.395Z,18.60
2018-05-04T08:03:07.655Z,18.40
2018-05-04T08:05:35.212Z,18.40
2018-05-04T08:08:02.726Z,18.20
2018-05-04T08:10:30.184Z,19.10
2018-05-04T08:12:57.888Z,19.90
2018-05-04T08:15:25.438Z,20.10
2018-05-04T08:17:52.931Z,20.10
2018-05-04T08:20:20.689Z,19.40
2018-05-04T08:22:48.129Z,18.80
2018-05-04T08:25:15.634Z,19.50
2018-05-04T08:27:52.810Z,19.90
2018-05-04T08:30:20.692Z,20.40
2018-05-04T08:32:48.173Z,19.30
2018-05-04T08:35:18.957Z,18.50
2018-05-04T08:37:46.576Z,18.50
2018-05-04T08:43:44.019Z,19.20
2018-05-04T08:46:11.506Z,19.00
2018-05-04T08:48:39.026Z,18.60
2018-05-04T08:51:06.836Z,18.60
2018-05-04T08:53:34.337Z,18.70
2018-05-04T08:56:01.875Z,18.20
2018-05-04T08:58:29.389Z,18.90
2018-05-04T09:00:56.899Z,18.60
2018-05-04T09:03:25.236Z,18.70
2018-05-04T09:05:52.784Z,18.70
2018-05-04T09:08:21.091Z,19.60
2018-05-04T09:10:50.025Z,20.10
2018-05-04T09:13:18.316Z,19.70
2018-05-04T09:15:45.758Z,19.60
2018-05-04T09:18:14.037Z,19.80
2018-05-04T09:20:41.651Z,19.80
2018-05-04T09:23:09.158Z,19.90
2018-05-04T09:25:36.607Z,20.20
2018-05-04T09:28:04.150Z,20.20
2018-05-04T09:30:32.129Z,19.50
2018-05-04T09:33:00.011Z,19.60
2018-05-04T09:35:27.828Z,19.50
2018-05-04T09:37:55.326Z,19.40
2018-05-04T09:40:22.987Z,20.10
2018-05-04T09:42:50.603Z,20.20
2018-05-04T09:45:18.170Z,20.10
2018-05-04T09:47:45.889Z,19.80
2018-05-04T09:50:13.416Z,20.50
2018-05-04T09:52:41.910Z,21.30
2018-05-04T09:55:09.931Z,21.30
2018-05-04T09:57:37.415Z,20.50
2018-05-04T10:00:04.943Z,20.20
2018-05-04T10:02:32.639Z,20.20
2018-05-04T10:05:00.152Z,20.30
2018-05-04T10:07:27.698Z,20.60
2018-05-04T10:09:55.220Z,20.80
2018-05-04T10:12:22.766Z,21.10
2018-05-04T10:14:50.276Z,20.30
2018-05-04T10:17:17.992Z,20.20
2018-05-04T10:19:45.454Z,21.10
2018-05-04T10:22:13.611Z,20.30
2018-05-04T10:24:41.379Z,19.60
2018-05-04T10:27:08.810Z,19.70
2018-05-04T10:29:36.361Z,19.50
2018-05-04T10:32:05.003Z,19.80
2018-05-04T10:34:32.747Z,19.60
2018-05-04T10:37:00.756Z,19.50
2018-05-04T10:39:28.294Z,19.80
2018-05-04T10:41:56.394Z,20.50
2018-05-04T10:44:23.809Z,20.50
2018-05-04T10:46:51.335Z,20.10
2018-05-04T10:49:18.841Z,20.20
2018-05-04T10:51:46.361Z,21.00
2018-05-04T10:54:13.923Z,20.40
2018-05-04T10:56:41.656Z,20.10
2018-05-04T10:59:09.985Z,20.10
2018-05-04T11:01:38.402Z,19.90
2018-05-04T11:04:06.407Z,19.80
2018-05-04T11:06:34.708Z,20.20
2018-05-04T11:09:02.545Z,20.20
2018-05-04T11:11:30.044Z,19.70
2018-05-04T11:13:57.620Z,19.70
2018-05-04T11:16:25.127Z,20.10
2018-05-04T11:18:52.720Z,19.70
2018-05-04T11:21:21.121Z,19.80
2018-05-04T11:23:49.512Z,20.00
2018-05-04T11:26:17.814Z,20.10
2018-05-04T11:28:45.269Z,20.10
2018-05-04T11:31:12.826Z,19.60
2018-05-04T11:33:40.347Z,19.50
2018-05-04T11:36:08.616Z,19.50
2018-05-04T11:38:36.155Z,19.50
2018-05-04T11:41:04.388Z,19.00
2018-05-04T11:43:31.797Z,19.80
2018-05-04T11:45:59.407Z,20.30
2018-05-04T11:48:28.682Z,20.00
2018-05-04T11:50:56.218Z,20.00
2018-05-04T11:53:23.834Z,19.40
2018-05-04T11:55:52.173Z,19.80
2018-05-04T11:58:19.747Z,19.80
2018-05-04T12:00:47.563Z,20.70
2018-05-04T12:03:15.006Z,20.40
2018-05-04T12:05:42.489Z,20.70
2018-05-04T12:08:10.820Z,21.20
2018-05-04T12:10:38.983Z,21.00
2018-05-04T12:13:06.502Z,20.70
2018-05-04T12:15:34.022Z,20.80
2018-05-04T12:18:01.813Z,20.50
2018-05-04T12:20:30.070Z,20.10
2018-05-04T12:22:58.529Z,20.00
2018-05-04T12:25:26.798Z,20.80
2018-05-04T12:27:54.282Z,20.80
2018-05-04T12:30:21.870Z,20.70
2018-05-04T12:32:49.418Z,20.70
2018-05-04T12:35:16.884Z,21.00
2018-05-04T12:37:44.920Z,21.20
2018-05-04T12:40:13.659Z,21.30
2018-05-04T12:42:41.475Z,20.80
2018-05-04T12:45:09.091Z,20.30
2018-05-04T12:47:36.927Z,21.20
2018-05-04T12:50:05.262Z,21.80
2018-05-04T12:52:32.792Z,21.80
2018-05-04T12:55:00.290Z,21.60
2018-05-04T12:57:29.872Z,21.30
2018-05-04T12:59:57.477Z,21.80
2018-05-04T13:02:24.971Z,21.40
2018-05-04T13:04:52.481Z,21.90
2018-05-04T13:07:20.142Z,22.00
2018-05-04T13:09:48.394Z,21.10
2018-05-04T13:12:15.917Z,21.10
2018-05-04T13:14:45.201Z,21.60
2018-05-04T13:17:14.957Z,21.70
2018-05-04T13:19:43.766Z,22.10
2018-05-04T13:22:12.001Z,21.20
2018-05-04T13:24:40.390Z,20.70
2018-05-04T13:27:07.872Z,20.70
2018-05-04T13:29:35.727Z,20.60
2018-05-04T13:32:03.278Z,20.20
2018-05-04T13:34:31.044Z,20.60
2018-05-04T13:36:58.733Z,20.70
2018-05-04T13:39:26.988Z,20.70
2018-05-04T13:41:54.665Z,20.60
2018-05-04T13:44:23.874Z,20.30
2018-05-04T13:46:52.565Z,20.10
2018-05-04T13:49:20.161Z,20.50
2018-05-04T13:51:47.745Z,20.60
2018-05-04T13:54:15.303Z,20.90
2018-05-04T13:56:43.577Z,20.20
2018-05-04T13:59:11.073Z,19.80
2018-05-04T14:01:38.658Z,19.90
2018-05-04T14:04:06.196Z,19.60
2018-05-04T14:06:33.825Z,19.60
2018-05-04T14:09:01.410Z,19.50
2018-05-04T14:11:29.643Z,19.10
2018-05-04T14:13:58.026Z,18.90
2018-05-04T14:16:25.631Z,18.90
2018-05-04T14:18:53.588Z,19.00
2018-05-04T14:21:22.013Z,19.30
2018-05-04T14:23:49.522Z,19.30
2018-05-04T14:26:17.174Z,19.30
2018-05-04T14:28:44.639Z,19.20
2018-05-04T14:31:13.028Z,19.10
2018-05-04T14:33:40.561Z,19.10
2018-05-04T14:36:08.029Z,18.80
2018-05-04T14:38:35.626Z,18.80
2018-05-04T14:41:03.232Z,18.90
2018-05-04T14:43:31.510Z,18.80
2018-05-04T14:45:59.091Z,18.80
2018-05-04T14:48:26.580Z,18.90
2018-05-04T14:50:54.103Z,18.80
2018-05-04T14:53:21.684Z,18.70
2018-05-04T14:55:49.206Z,18.60
2018-05-04T14:58:16.841Z,18.60
2018-05-04T15:00:44.415Z,18.80
2018-05-04T15:03:11.889Z,18.70
2018-05-04T15:05:40.220Z,18.70
2018-05-04T15:08:07.702Z,18.70
2018-05-04T15:10:35.169Z,18.60
2018-05-04T15:13:03.457Z,18.50
2018-05-04T15:15:31.083Z,18.50
2018-05-04T15:17:58.693Z,18.50
2018-05-04T15:20:27.709Z,18.40
2018-05-04T15:22:55.178Z,18.50
2018-05-04T15:25:23.083Z,18.60
2018-05-04T15:27:50.613Z,18.40
2018-05-04T15:30:19.199Z,18.40
2018-05-04T15:32:46.683Z,18.40
2018-05-04T15:35:15.291Z,18.20
2018-05-04T15:37:42.894Z,18.20
2018-05-04T15:40:10.364Z,18.20
2018-05-04T15:42:37.908Z,18.40
2018-05-04T15:45:05.572Z,18.30
2018-05-04T15:47:33.140Z,18.30
2018-05-04T15:50:00.685Z,18.20
2018-05-04T15:52:29.751Z,18.10
2018-05-04T15:54:57.391Z,18.10
2018-05-04T15:57:25.941Z,18.10
2018-05-04T15:59:53.649Z,18.10
2018-05-04T16:02:21.270Z,18.20
2018-05-04T16:04:48.940Z,18.20
2018-05-04T16:07:16.637Z,18.10
2018-05-04T16:09:44.099Z,18.10
2018-05-04T16:13:23.594Z,18.20
2018-05-04T16:15:51.124Z,18.20
2018-05-04T16:18:19.721Z,18.20
2018-05-04T16:20:47.246Z,18.20
2018-05-04T16:23:15.222Z,18.20
2018-05-04T16:25:42.763Z,18.20
2018-05-04T16:28:11.085Z,18.00
2018-05-04T16:30:38.765Z,18.00
2018-05-04T16:33:06.271Z,18.00
2018-05-04T16:35:34.862Z,17.90
2018-05-04T16:38:03.184Z,17.80
2018-05-04T16:40:30.632Z,17.80
2018-05-04T16:42:58.124Z,17.90
2018-05-04T16:45:25.681Z,17.90
2018-05-04T16:47:53.369Z,17.90
2018-05-04T16:50:20.879Z,17.80
2018-05-04T16:52:49.994Z,17.80
2018-05-04T16:55:17.641Z,17.80
2018-05-04T16:57:46.013Z,17.90
2018-05-04T17:00:13.599Z,17.70
2018-05-04T17:02:41.799Z,17.70
2018-05-04T17:05:09.347Z,17.80
2018-05-04T17:07:38.215Z,17.70
2018-05-04T17:10:05.791Z,17.70
2018-05-04T17:12:33.451Z,17.70
2018-05-04T17:15:00.941Z,17.60
2018-05-04T17:17:28.618Z,17.60
2018-05-04T17:19:57.865Z,17.50
2018-05-04T17:22:25.407Z,17.50
2018-05-04T17:24:53.281Z,17.50
2018-05-04T17:27:20.712Z,17.60
2018-05-04T17:29:48.215Z,17.60
2018-05-04T17:32:15.959Z,17.50
2018-05-04T17:34:43.561Z,17.40
2018-05-04T17:37:11.093Z,17.40
2018-05-04T17:39:39.395Z,17.30
2018-05-04T17:42:06.952Z,17.30
2018-05-04T17:44:34.512Z,17.30
2018-05-04T17:47:01.963Z,17.30
2018-05-04T17:49:29.536Z,17.20
2018-05-04T17:51:57.068Z,17.20
2018-05-04T17:54:24.551Z,17.20
2018-05-04T17:56:52.197Z,17.10
2018-05-04T17:59:19.873Z,17.10
2018-05-04T18:01:47.610Z,17.00
2018-05-04T18:04:15.155Z,17.10
2018-05-04T18:06:45.197Z,16.90
2018-05-04T18:09:12.902Z,16.90
2018-05-04T18:11:41.739Z,16.80
2018-05-04T18:14:09.407Z,16.80
2018-05-04T18:16:37.005Z,16.70
2018-05-04T18:19:04.713Z,16.70
2018-05-04T18:21:32.681Z,16.70
2018-05-04T18:24:00.536Z,16.60
2018-05-04T18:26:29.764Z,16.50
2018-05-04T18:28:57.267Z,16.50
2018-05-04T18:31:25.713Z,16.40
2018-05-04T18:33:53.311Z,16.30
2018-05-04T18:36:20.747Z,16.20
2018-05-04T18:38:48.445Z,16.20
2018-05-04T18:41:15.977Z,16.10
2018-05-04T18:43:43.500Z,16.00
2018-05-04T18:46:10.987Z,15.90
2018-05-04T18:48:39.550Z,15.70
2018-05-04T18:51:07.262Z,15.70
2018-05-04T18:53:35.029Z,15.70
2018-05-04T18:56:02.602Z,15.60
2018-05-04T18:58:30.154Z,15.50
2018-05-04T19:00:58.134Z,15.50
2018-05-04T19:03:25.675Z,15.30
2018-05-04T19:05:54.032Z,15.20
2018-05-04T19:08:22.286Z,15.20
2018-05-04T19:10:50.030Z,15.20
2018-05-04T19:13:17.622Z,15.10
2018-05-04T19:15:45.207Z,15.10
2018-05-04T19:18:13.630Z,15.00
2018-05-04T19:20:41.318Z,15.00
2018-05-04T19:23:08.875Z,14.90
2018-05-04T19:25:36.554Z,14.90
2018-05-04T19:28:04.100Z,14.90
2018-05-04T19:30:33.947Z,14.80
2018-05-04T19:33:02.511Z,14.80
2018-05-04T19:35:30.056Z,14.80
2018-05-04T19:37:57.564Z,14.70
2018-05-04T19:40:26.083Z,14.60
2018-05-04T19:42:53.728Z,14.60
2018-05-04T19:45:21.359Z,14.70
2018-05-04T19:47:49.169Z,14.60
2018-05-04T19:50:17.509Z,14.40
2018-05-04T19:52:45.829Z,14.40
2018-05-04T19:55:13.300Z,14.40
2018-05-04T19:57:40.905Z,14.40
2018-05-04T20:00:09.323Z,14.40
2018-05-04T20:02:37.289Z,14.30
2018-05-04T20:05:04.825Z,14.20
2018-05-04T20:07:32.505Z,14.10
2018-05-04T20:10:00.065Z,14.10
2018-05-04T20:12:27.523Z,14.10
2018-05-04T20:14:55.106Z,14.00
2018-05-04T20:17:22.669Z,13.90
2018-05-04T20:19:50.265Z,13.90
2018-05-04T20:22:19.506Z,13.80
2018-05-04T20:24:47.461Z,13.80
2018-05-04T20:27:14.977Z,13.80
2018-05-04T20:29:42.549Z,13.70
2018-05-04T20:32:10.275Z,13.60
2018-05-04T20:34:38.996Z,13.40
2018-05-04T20:37:07.028Z,13.40
2018-05-04T20:39:34.567Z,13.40
2018-05-04T20:42:02.020Z,13.30
2018-05-04T20:44:29.575Z,13.30
2018-05-04T20:46:57.100Z,13.30
2018-05-04T20:49:24.608Z,13.30
2018-05-04T20:51:52.976Z,13.20
2018-05-04T20:54:20.460Z,13.20
2018-05-04T20:56:48.860Z,13.10
2018-05-04T20:59:16.662Z,13.10
2018-05-04T21:01:44.370Z,13.10
2018-05-04T21:04:11.912Z,13.10
2018-05-04T21:06:39.527Z,13.10
2018-05-04T21:09:07.000Z,13.00
2018-05-04T21:11:34.572Z,13.00
2018-05-04T21:14:02.135Z,12.90
2018-05-04T21:16:29.676Z,12.80
2018-05-04T21:18:57.205Z,12.80
2018-05-04T21:21:24.757Z,12.80
2018-05-04T21:23:52.293Z,12.70
2018-05-04T21:26:19.817Z,12.70
2018-05-04T21:28:47.307Z,12.70
2018-05-04T21:31:14.925Z,12.70
2018-05-04T21:33:42.562Z,12.60
2018-05-04T21:36:10.106Z,12.60
2018-05-04T21:38:37.590Z,12.50
2018-05-04T21:41:05.146Z,12.50
2018-05-04T21:43:32.718Z,12.60
2018-05-04T21:46:00.841Z,12.50
2018-05-04T21:48:28.588Z,12.40
2018-05-04T21:50:56.105Z,12.40
2018-05-04T21:53:23.593Z,12.50
2018-05-04T21:55:51.535Z,12.40
2018-05-04T21:58:19.075Z,12.40
2018-05-04T22:00:47.330Z,12.40
2018-05-04T22:03:15.174Z,12.40
2018-05-04T22:05:43.493Z,12.40
2018-05-04T22:08:11.057Z,12.40
2018-05-04T22:10:38.583Z,12.40
2018-05-04T22:13:06.413Z,12.40
2018-05-04T22:15:33.919Z,12.30
2018-05-04T22:18:01.467Z,12.30
2018-05-04T22:20:30.528Z,12.20
2018-05-04T22:22:58.331Z,12.20
2018-05-04T22:25:26.261Z,12.10
2018-05-04T22:27:54.372Z,12.10
2018-05-04T22:30:21.950Z,12.10
2018-05-04T22:32:49.470Z,12.10
2018-05-04T22:35:17.008Z,12.00
2018-05-04T22:37:44.571Z,12.00
2018-05-04T22:40:12.167Z,11.90
2018-05-04T22:42:39.837Z,11.90
2018-05-04T22:45:07.512Z,11.90
2018-05-04T22:47:35.062Z,11.90
2018-05-04T22:50:03.152Z,11.80
2018-05-04T22:52:30.848Z,11.80
2018-05-04T22:54:58.460Z,11.80
2018-05-04T22:57:25.946Z,11.70
2018-05-04T22:59:53.987Z,11.70
2018-05-04T23:02:21.464Z,11.60
2018-05-04T23:04:49.017Z,11.50
2018-05-04T23:07:16.630Z,11.40
2018-05-04T23:09:44.109Z,11.50
2018-05-04T23:12:11.650Z,11.40
2018-05-04T23:14:39.119Z,11.40
2018-05-04T23:17:06.655Z,11.30
2018-05-04T23:19:34.143Z,11.20
2018-05-04T23:22:01.645Z,11.20
2018-05-04T23:24:29.952Z,11.10
2018-05-04T23:26:57.446Z,11.10
2018-05-04T23:29:26.518Z,11.10
2018-05-04T23:31:54.081Z,11.00
2018-05-04T23:34:21.652Z,11.00
2018-05-04T23:36:49.072Z,11.00
2018-05-04T23:39:17.687Z,10.90
2018-05-04T23:41:45.301Z,10.90
2018-05-04T23:44:12.816Z,10.90
2018-05-04T23:46:40.603Z,10.80
2018-05-04T23:49:08.051Z,10.70
2018-05-04T23:51:35.557Z,10.80
2018-05-04T23:54:03.814Z,10.80
2018-05-04T23:56:32.033Z,10.80
2018-05-04T23:58:59.552Z,10.80
